Time;durP1;ratioP1;P1;durP2;ratioP2;P2;SDS_P1;SDS_P2;PMS_P1;PMS_P2;Temp;Humidity;BMP_temperature;BMP_pressure;BME280_temperature;BME280_humidity;BME280_pressure;Samples;Min_cycle;Max_cycle;Signal;HPM_P1;HPM_P2
2021/05/30 00:01:31;;;;;;;10.50;10.10;;;24.50;58.00;;;;;;3606310;39;20499;-48
2021/05/30 00:03:58;;;;;;;11.10;10.60;;;24.50;58.00;;;;;;3615813;39;20733;-49
2021/05/30 00:06:28;;;;;;;11.00;10.50;;;24.50;58.00;;;;;;3606982;39;20489;-48
2021/05/30 00:08:55;;;;;;;10.30;9.90;;;24.50;58.00;;;;;;3598264;39;20471;-48
2021/05/30 00:11:22;;;;;;;10.40;10.00;;;24.50;58.00;;;;;;3616652;39;20479;-49
2021/05/30 00:13:52;;;;;;;10.40;10.00;;;24.60;58.00;;;;;;3615829;39;20467;-48
2021/05/30 00:16:19;;;;;;;10.67;10.20;;;24.60;58.00;;;;;;3616659;39;20712;-48
2021/05/30 00:18:45;;;;;;;11.50;10.90;;;24.60;58.00;;;;;;3606971;39;20679;-48
2021/05/30 00:21:12;;;;;;;10.20;9.90;;;24.60;58.00;;;;;;3617447;39;20792;-48
2021/05/30 00:23:39;;;;;;;10.30;9.90;;;24.60;58.00;;;;;;3607822;39;20884;-48
2021/05/30 00:26:06;;;;;;;10.50;10.10;;;24.60;58.00;;;;;;3617839;39;21080;-48
2021/05/30 00:28:33;;;;;;;10.50;10.10;;;24.60;58.00;;;;;;3616833;39;20531;-48
2021/05/30 00:31:00;;;;;;;10.60;10.20;;;24.60;58.00;;;;;;3617136;39;20732;-48
2021/05/30 00:33:27;;;;;;;11.03;10.53;;;24.60;58.00;;;;;;3617350;39;20486;-48
2021/05/30 00:35:54;;;;;;;10.83;10.40;;;24.60;58.00;;;;;;3608458;39;20744;-48
2021/05/30 00:38:24;;;;;;;10.90;10.50;;;24.60;58.10;;;;;;3608349;39;20479;-48
2021/05/30 00:40:52;;;;;;;10.30;9.90;;;24.60;58.00;;;;;;3618015;39;20478;-48
2021/05/30 00:43:20;;;;;;;10.20;9.80;;;24.60;58.10;;;;;;3617789;39;20494;-48
2021/05/30 00:45:48;;;;;;;10.40;10.00;;;24.60;58.00;;;;;;3608839;39;20494;-48
2021/05/30 00:48:16;;;;;;;10.77;10.37;;;24.60;58.00;;;;;;3617784;39;20479;-49
2021/05/30 00:50:47;;;;;;;10.83;10.43;;;24.60;58.00;;;;;;3617313;39;20482;-48
2021/05/30 00:53:18;;;;;;;11.17;10.77;;;24.60;57.90;;;;;;3618004;39;20577;-48
2021/05/30 00:55:45;;;;;;;11.40;10.90;;;24.70;58.10;;;;;;3617795;39;20479;-48
2021/05/30 00:58:12;;;;;;;10.90;10.50;;;24.70;58.10;;;;;;3608257;39;20520;-49
2021/05/30 01:00:39;;;;;;;11.97;11.57;;;24.70;58.10;;;;;;3617356;39;20863;-48
2021/05/30 01:03:06;;;;;;;11.30;10.80;;;24.70;58.00;;;;;;3608268;39;20498;-48
2021/05/30 01:05:33;;;;;;;11.07;10.67;;;24.70;58.10;;;;;;3616148;39;20487;-48
2021/05/30 01:08:00;;;;;;;11.20;10.70;;;24.70;58.00;;;;;;3604986;39;20478;-49
2021/05/30 01:10:29;;;;;;;11.37;10.97;;;24.70;58.10;;;;;;3617826;39;20490;-48
2021/05/30 01:12:57;;;;;;;10.87;10.47;;;24.70;58.00;;;;;;3617599;39;20768;-48
2021/05/30 01:15:26;;;;;;;10.53;10.13;;;24.70;58.10;;;;;;3617220;39;20471;-48
2021/05/30 01:17:55;;;;;;;11.80;11.30;;;24.70;58.00;;;;;;3618145;39;20883;-49
2021/05/30 01:20:23;;;;;;;11.07;10.57;;;24.70;58.10;;;;;;3617551;39;20475;-48
2021/05/30 01:22:51;;;;;;;11.00;10.50;;;24.70;58.00;;;;;;3617556;39;21074;-48
2021/05/30 01:25:21;;;;;;;11.27;10.67;;;24.70;58.10;;;;;;3618362;39;20533;-48
2021/05/30 01:27:50;;;;;;;10.73;10.33;;;24.70;58.10;;;;;;3617697;39;20721;-49
2021/05/30 01:30:20;;;;;;;10.93;10.50;;;24.70;58.10;;;;;;3617875;39;20475;-48
2021/05/30 01:32:47;;;;;;;11.23;10.70;;;24.70;58.20;;;;;;3616105;39;20479;-48
2021/05/30 01:35:15;;;;;;;11.67;11.17;;;24.70;58.20;;;;;;3615312;39;20484;-51
2021/05/30 01:37:42;;;;;;;11.20;10.80;;;24.70;58.20;;;;;;3616863;39;21075;-48
2021/05/30 01:40:10;;;;;;;10.77;10.37;;;24.70;58.20;;;;;;3617242;39;20588;-48
2021/05/30 01:42:39;;;;;;;10.47;10.07;;;24.70;58.20;;;;;;3617350;39;20866;-49
2021/05/30 01:45:07;;;;;;;10.47;10.07;;;24.70;58.10;;;;;;3608079;39;20490;-50
2021/05/30 01:47:37;;;;;;;10.67;10.27;;;24.70;58.20;;;;;;3617048;39;20475;-49
2021/05/30 01:50:05;;;;;;;10.83;10.43;;;24.70;58.20;;;;;;3617173;39;20486;-48
2021/05/30 01:52:32;;;;;;;10.50;10.10;;;24.70;58.20;;;;;;3617624;39;20568;-48
2021/05/30 01:54:59;;;;;;;10.13;9.73;;;24.70;58.20;;;;;;3617723;39;20476;-48
2021/05/30 01:57:27;;;;;;;10.67;10.27;;;24.70;58.20;;;;;;3617649;39;21094;-48
2021/05/30 01:59:55;;;;;;;10.30;9.80;;;24.70;58.20;;;;;;3617352;39;20568;-49
2021/05/30 02:02:24;;;;;;;10.87;10.37;;;24.70;58.20;;;;;;3617358;39;20498;-48
2021/05/30 02:04:53;;;;;;;10.37;9.97;;;24.70;58.20;;;;;;3618265;39;20858;-48
2021/05/30 02:07:20;;;;;;;10.70;10.30;;;24.70;58.20;;;;;;3617959;39;20816;-48
2021/05/30 02:09:46;;;;;;;10.90;10.40;;;24.70;58.20;;;;;;3617862;39;20495;-48
2021/05/30 02:12:15;;;;;;;10.73;10.30;;;24.70;58.20;;;;;;3617511;39;20475;-48
2021/05/30 02:14:42;;;;;;;10.80;10.40;;;24.70;58.30;;;;;;3616688;39;20479;-49
2021/05/30 02:17:10;;;;;;;11.33;10.90;;;24.70;58.20;;;;;;3616904;39;20483;-48
2021/05/30 02:19:37;;;;;;;11.10;10.70;;;24.70;58.30;;;;;;3617858;39;20492;-48
2021/05/30 02:22:04;;;;;;;10.67;10.27;;;24.70;58.30;;;;;;3618017;39;20464;-49
2021/05/30 02:24:31;;;;;;;10.47;10.03;;;24.70;58.30;;;;;;3617557;39;20491;-48
2021/05/30 02:26:58;;;;;;;10.50;10.10;;;24.70;58.30;;;;;;3617680;39;20475;-49
2021/05/30 02:29:35;;;;;;;10.70;10.30;;;24.70;58.30;;;;;;3617786;39;20525;-48
2021/05/30 02:32:02;;;;;;;10.90;10.43;;;24.80;58.40;;;;;;3617008;39;20833;-48
2021/05/30 02:34:30;;;;;;;10.97;10.57;;;24.70;58.30;;;;;;3617070;39;20471;-48
2021/05/30 02:36:56;;;;;;;11.10;10.70;;;24.80;58.40;;;;;;3608229;39;20476;-48
2021/05/30 02:39:24;;;;;;;11.03;10.63;;;24.80;58.40;;;;;;3617902;39;20595;-49
2021/05/30 02:41:50;;;;;;;10.93;10.53;;;24.80;58.40;;;;;;3618082;39;20503;-48
2021/05/30 02:44:17;;;;;;;10.93;10.53;;;24.80;58.90;;;;;;3615414;39;20702;-48
2021/05/30 02:46:43;;;;;;;10.63;10.13;;;24.80;58.40;;;;;;3617099;39;20485;-48
2021/05/30 02:49:10;;;;;;;10.60;10.20;;;24.80;58.40;;;;;;3617147;39;20487;-48
2021/05/30 02:51:38;;;;;;;10.90;10.40;;;24.80;58.40;;;;;;3607598;39;20799;-49
2021/05/30 02:54:04;;;;;;;10.93;10.53;;;24.80;58.40;;;;;;3616713;39;20491;-49
2021/05/30 02:56:31;;;;;;;10.37;9.97;;;24.80;58.40;;;;;;3616392;39;20460;-48
2021/05/30 02:58:58;;;;;;;10.30;9.90;;;24.80;58.40;;;;;;3616615;39;20475;-49
2021/05/30 03:01:24;;;;;;;10.47;10.07;;;24.80;58.40;;;;;;3616080;39;20472;-49
2021/05/30 03:03:51;;;;;;;10.60;10.20;;;24.80;58.40;;;;;;3616940;39;20487;-48
2021/05/30 03:06:17;;;;;;;10.80;10.40;;;24.80;58.40;;;;;;3617338;39;20472;-49
2021/05/30 03:08:45;;;;;;;10.70;10.30;;;24.80;58.40;;;;;;3618062;39;20470;-48
2021/05/30 03:11:12;;;;;;;12.17;11.57;;;24.80;58.40;;;;;;3608383;39;20798;-48
2021/05/30 03:13:38;;;;;;;11.10;10.70;;;24.80;58.40;;;;;;3616977;39;20548;-48
2021/05/30 03:16:05;;;;;;;11.43;10.93;;;24.80;58.40;;;;;;3614122;39;20498;-48
2021/05/30 03:18:31;;;;;;;12.40;11.80;;;24.80;58.40;;;;;;3617466;39;20484;-49
2021/05/30 03:20:58;;;;;;;11.30;10.90;;;24.80;58.40;;;;;;3616599;39;20468;-48
2021/05/30 03:23:25;;;;;;;11.57;11.17;;;24.80;58.40;;;;;;3616654;39;20483;-48
2021/05/30 03:25:53;;;;;;;11.77;11.27;;;24.80;58.40;;;;;;3615900;39;20983;-48
2021/05/30 03:28:20;;;;;;;12.10;11.60;;;24.80;58.40;;;;;;3615866;39;20464;-50
2021/05/30 03:30:47;;;;;;;11.47;10.97;;;24.80;58.40;;;;;;3615372;39;20503;-48
2021/05/30 03:33:13;;;;;;;11.00;10.60;;;24.80;58.40;;;;;;3616080;39;20483;-48
2021/05/30 03:35:40;;;;;;;11.70;11.20;;;24.80;58.40;;;;;;3617223;39;20475;-49
2021/05/30 03:38:10;;;;;;;12.00;11.40;;;24.80;58.40;;;;;;3616651;39;20484;-48
2021/05/30 03:40:43;;;;;;;10.80;10.40;;;24.80;58.40;;;;;;3617546;39;20511;-48
2021/05/30 03:43:11;;;;;;;11.30;10.90;;;24.90;58.40;;;;;;3617028;39;20475;-49
2021/05/30 03:45:38;;;;;;;11.63;11.10;;;24.90;58.40;;;;;;3617213;39;20569;-48
2021/05/30 03:48:05;;;;;;;11.40;11.00;;;24.90;58.40;;;;;;3617114;39;20556;-49
2021/05/30 03:50:33;;;;;;;11.63;11.23;;;24.90;58.40;;;;;;3607060;39;20475;-48
2021/05/30 03:52:59;;;;;;;11.23;10.83;;;24.90;58.40;;;;;;3616873;39;20467;-48
2021/05/30 03:55:26;;;;;;;11.10;10.70;;;24.90;58.40;;;;;;3618243;39;20973;-49
2021/05/30 03:57:54;;;;;;;11.30;10.90;;;24.90;58.40;;;;;;3618694;39;20490;-48
2021/05/30 04:00:22;;;;;;;11.50;11.10;;;25.00;58.40;;;;;;3618118;39;20478;-48
2021/05/30 04:02:48;;;;;;;11.07;10.60;;;25.00;58.40;;;;;;3618431;39;20781;-48
2021/05/30 04:05:16;;;;;;;11.23;10.80;;;25.00;58.40;;;;;;3618410;39;20474;-48
2021/05/30 04:07:44;;;;;;;11.00;10.50;;;25.00;58.40;;;;;;3619045;39;20595;-48
2021/05/30 04:10:12;;;;;;;10.83;10.43;;;25.00;58.30;;;;;;3618915;39;20526;-48
2021/05/30 04:12:39;;;;;;;11.50;11.00;;;25.00;58.30;;;;;;3617123;39;20557;-48
2021/05/30 04:15:08;;;;;;;11.50;11.00;;;25.10;58.30;;;;;;3618240;39;20482;-48
2021/05/30 04:17:36;;;;;;;11.07;10.57;;;25.10;58.30;;;;;;3618721;39;20490;-48
2021/05/30 04:20:03;;;;;;;10.90;10.40;;;25.10;58.40;;;;;;3618050;39;20913;-48
2021/05/30 04:22:30;;;;;;;11.20;10.70;;;25.10;58.30;;;;;;3617963;39;20471;-48
2021/05/30 04:24:56;;;;;;;11.20;10.70;;;25.10;58.30;;;;;;3618398;39;20562;-48
2021/05/30 04:27:23;;;;;;;11.30;10.90;;;25.10;58.30;;;;;;3617593;39;20467;-48
2021/05/30 04:29:49;;;;;;;11.00;10.57;;;25.20;58.30;;;;;;3609306;39;20467;-48
2021/05/30 04:32:16;;;;;;;11.10;10.70;;;25.20;58.30;;;;;;3618032;39;20536;-48
2021/05/30 04:34:43;;;;;;;10.80;10.40;;;25.20;58.30;;;;;;3617133;39;20874;-50
2021/05/30 04:37:10;;;;;;;11.10;10.70;;;25.20;58.30;;;;;;3616139;39;20469;-49
2021/05/30 04:39:37;;;;;;;11.70;11.20;;;25.20;58.30;;;;;;3618747;39;20485;-48
2021/05/30 04:42:04;;;;;;;11.60;11.20;;;25.20;58.20;;;;;;3618387;39;20476;-48
2021/05/30 04:44:30;;;;;;;12.00;11.50;;;25.30;58.20;;;;;;3618250;39;20544;-48
2021/05/30 04:46:57;;;;;;;11.70;11.30;;;25.30;58.20;;;;;;3618384;39;20313;-48
2021/05/30 04:49:24;;;;;;;12.30;11.80;;;25.30;58.20;;;;;;3617900;39;20491;-50
2021/05/30 04:51:51;;;;;;;11.77;11.37;;;25.30;58.10;;;;;;3617854;39;20472;-48
2021/05/30 04:54:18;;;;;;;11.90;11.40;;;25.30;58.10;;;;;;3618714;39;20497;-48
2021/05/30 04:56:44;;;;;;;11.67;11.27;;;25.40;58.20;;;;;;3617508;39;20690;-48
2021/05/30 04:59:11;;;;;;;11.27;10.87;;;25.40;58.20;;;;;;3617072;39;20479;-48
2021/05/30 05:01:37;;;;;;;11.50;11.10;;;25.40;58.20;;;;;;3617082;39;20556;-50
2021/05/30 05:04:04;;;;;;;11.43;11.03;;;25.40;58.20;;;;;;3617577;39;20855;-48
2021/05/30 05:06:31;;;;;;;12.03;11.63;;;25.40;58.20;;;;;;3617054;39;20491;-51
2021/05/30 05:08:58;;;;;;;11.23;10.83;;;25.40;58.20;;;;;;3617543;39;20506;-48
2021/05/30 05:11:25;;;;;;;11.73;11.27;;;25.40;58.20;;;;;;3618060;39;20470;-50
2021/05/30 05:13:51;;;;;;;11.80;11.30;;;25.40;58.20;;;;;;3618369;39;20474;-48
2021/05/30 05:16:18;;;;;;;11.93;11.43;;;25.40;58.20;;;;;;3608232;39;20479;-48
2021/05/30 05:18:45;;;;;;;11.67;11.23;;;25.40;58.10;;;;;;3617896;39;20572;-49
2021/05/30 05:21:11;;;;;;;12.03;11.53;;;25.40;58.10;;;;;;3617355;39;20741;-48
2021/05/30 05:23:38;;;;;;;12.03;11.57;;;25.40;58.10;;;;;;3606997;39;20494;-48
2021/05/30 05:26:05;;;;;;;11.40;10.93;;;25.50;58.20;;;;;;3616029;39;20485;-48
2021/05/30 05:28:33;;;;;;;11.00;10.60;;;25.50;58.20;;;;;;3615470;39;20463;-48
2021/05/30 05:31:01;;;;;;;11.33;10.83;;;25.50;58.10;;;;;;3616191;39;20471;-48
2021/05/30 05:33:27;;;;;;;11.70;11.30;;;25.40;58.20;;;;;;3617232;39;20471;-49
2021/05/30 05:35:54;;;;;;;12.17;11.67;;;25.40;58.20;;;;;;3617502;39;20479;-48
2021/05/30 05:38:21;;;;;;;11.57;11.17;;;25.40;58.20;;;;;;3617568;39;20468;-48
2021/05/30 05:40:47;;;;;;;10.70;10.20;;;25.40;58.30;;;;;;3616297;39;20476;-48
2021/05/30 05:43:15;;;;;;;11.50;11.10;;;25.40;58.30;;;;;;3617119;39;20471;-48
2021/05/30 05:45:42;;;;;;;11.10;10.70;;;25.30;58.20;;;;;;3616692;39;21043;-49
2021/05/30 05:48:13;;;;;;;11.20;10.80;;;25.30;58.30;;;;;;3615880;39;20557;-48
2021/05/30 05:50:40;;;;;;;11.13;10.73;;;25.30;58.30;;;;;;3615976;39;20561;-48
2021/05/30 05:53:07;;;;;;;11.37;10.97;;;25.30;58.30;;;;;;3616434;39;20475;-49
2021/05/30 05:55:34;;;;;;;11.53;11.03;;;25.30;58.30;;;;;;3617182;39;20578;-48
2021/05/30 05:58:00;;;;;;;11.30;10.60;;;25.30;58.30;;;;;;3615571;39;20463;-48
2021/05/30 06:00:31;;;;;;;11.20;10.70;;;25.30;58.30;;;;;;3616087;39;20475;-48
2021/05/30 06:02:58;;;;;;;11.00;10.57;;;25.30;58.40;;;;;;3616785;39;20475;-48
2021/05/30 06:05:26;;;;;;;11.27;10.77;;;25.30;58.40;;;;;;3611237;39;20470;-48
2021/05/30 06:07:56;;;;;;;11.23;10.73;;;25.30;58.40;;;;;;3615040;39;20561;-49
2021/05/30 06:10:24;;;;;;;11.80;11.30;;;25.30;58.40;;;;;;3615990;39;20592;-49
2021/05/30 06:12:51;;;;;;;11.07;10.67;;;25.30;58.40;;;;;;3606464;39;20476;-48
2021/05/30 06:15:20;;;;;;;10.90;10.50;;;25.30;58.40;;;;;;3615687;39;20467;-48
2021/05/30 06:17:52;;;;;;;12.13;11.57;;;25.40;58.40;;;;;;3615671;39;20534;-48
2021/05/30 06:20:19;;;;;;;11.83;11.43;;;25.40;58.40;;;;;;3616579;39;21151;-49
2021/05/30 06:22:46;;;;;;;11.38;10.98;;;25.40;58.40;;;;;;3615918;39;20867;-48
2021/05/30 06:25:12;;;;;;;11.87;11.37;;;25.30;58.40;;;;;;3615164;39;20291;-49
2021/05/30 06:27:39;;;;;;;11.17;10.73;;;25.30;58.50;;;;;;3615459;39;20463;-48
2021/05/30 06:30:06;;;;;;;11.63;10.93;;;25.30;58.60;;;;;;3615524;39;20491;-49
2021/05/30 06:32:34;;;;;;;11.50;11.00;;;25.20;58.60;;;;;;3612032;39;20480;-50
2021/05/30 06:35:01;;;;;;;11.87;11.37;;;25.20;58.70;;;;;;3605307;39;20496;-49
2021/05/30 06:37:28;;;;;;;11.60;11.20;;;25.20;58.80;;;;;;3604168;39;20538;-49
2021/05/30 06:39:54;;;;;;;11.43;11.03;;;25.20;58.80;;;;;;3605727;39;20761;-49
2021/05/30 06:42:21;;;;;;;11.53;11.03;;;25.20;58.90;;;;;;3605079;39;20553;-48
2021/05/30 06:44:47;;;;;;;10.93;10.53;;;25.20;59.00;;;;;;3605916;39;20480;-48
2021/05/30 06:47:14;;;;;;;10.60;10.20;;;25.10;59.00;;;;;;3605696;39;20557;-49
2021/05/30 06:49:40;;;;;;;10.90;10.50;;;25.10;59.00;;;;;;3606023;39;20473;-48
2021/05/30 06:52:08;;;;;;;11.27;10.87;;;25.10;59.10;;;;;;3606048;39;20541;-48
2021/05/30 06:54:36;;;;;;;11.40;10.90;;;25.10;59.10;;;;;;3605597;39;20581;-50
2021/05/30 06:57:03;;;;;;;11.60;11.10;;;25.10;59.10;;;;;;3605185;39;20490;-48
2021/05/30 06:59:31;;;;;;;11.20;10.80;;;25.10;59.10;;;;;;3605737;39;20709;-48
2021/05/30 07:01:57;;;;;;;11.40;11.00;;;25.00;59.10;;;;;;3605995;39;20882;-48
2021/05/30 07:04:26;;;;;;;10.80;10.40;;;25.00;59.20;;;;;;3605355;39;20883;-49
2021/05/30 07:06:54;;;;;;;10.97;10.57;;;25.00;59.20;;;;;;3603427;39;20473;-48
2021/05/30 07:09:22;;;;;;;10.80;10.40;;;25.00;59.30;;;;;;3605025;39;20804;-48
2021/05/30 07:11:48;;;;;;;11.60;11.20;;;25.00;59.30;;;;;;3604467;39;20488;-48
2021/05/30 07:14:15;;;;;;;12.30;11.90;;;25.00;59.30;;;;;;3603380;39;20577;-48
2021/05/30 07:16:42;;;;;;;13.70;13.10;;;25.00;60.00;;;;;;3604802;39;20489;-48
2021/05/30 07:19:08;;;;;;;11.80;11.40;;;25.00;59.50;;;;;;3615459;39;20491;-49
2021/05/30 07:21:35;;;;;;;12.00;11.50;;;25.00;59.50;;;;;;3614764;39;20497;-49
2021/05/30 07:24:02;;;;;;;11.70;11.30;;;25.00;59.50;;;;;;3614938;39;20491;-48
2021/05/30 07:26:29;;;;;;;12.60;12.00;;;24.90;59.40;;;;;;3604571;39;20486;-48
2021/05/30 07:28:56;;;;;;;12.00;11.60;;;24.90;59.50;;;;;;3613928;39;20483;-49
2021/05/30 07:31:22;;;;;;;11.60;11.10;;;24.90;60.10;;;;;;3613897;39;20475;-48
2021/05/30 07:33:49;;;;;;;11.77;11.37;;;24.90;59.50;;;;;;3615783;39;20577;-49
2021/05/30 07:36:16;;;;;;;13.83;13.03;;;24.90;59.60;;;;;;3616285;39;20926;-48
2021/05/30 07:38:43;;;;;;;14.83;13.80;;;24.60;56.40;;;;;;3616078;39;20545;-49
2021/05/30 07:41:09;;;;;;;14.07;13.27;;;24.10;56.20;;;;;;3616137;39;21124;-49
2021/05/30 07:43:37;;;;;;;14.43;13.60;;;23.90;55.70;;;;;;3616252;39;20507;-47
2021/05/30 07:46:04;;;;;;;14.23;13.53;;;23.80;56.00;;;;;;3616747;39;20483;-47
2021/05/30 07:48:31;;;;;;;13.70;12.90;;;23.50;56.40;;;;;;3615957;39;20822;-48
2021/05/30 07:50:57;;;;;;;13.50;12.90;;;23.30;56.40;;;;;;3615419;39;20568;-48
2021/05/30 07:53:24;;;;;;;12.50;11.90;;;23.30;56.50;;;;;;3614045;39;20479;-48
2021/05/30 07:55:51;;;;;;;12.70;12.10;;;23.30;56.10;;;;;;3614668;39;20471;-48
2021/05/30 07:58:17;;;;;;;12.73;11.93;;;23.30;56.00;;;;;;3614921;39;20479;-48
2021/05/30 08:00:45;;;;;;;12.03;11.50;;;23.30;55.70;;;;;;3614489;39;20486;-48
2021/05/30 08:03:11;;;;;;;13.97;13.17;;;23.40;55.30;;;;;;3614135;39;20888;-48
2021/05/30 08:05:38;;;;;;;13.27;12.57;;;23.30;55.50;;;;;;3614731;39;20463;-48
2021/05/30 08:08:05;;;;;;;13.03;12.10;;;23.30;55.10;;;;;;3606115;39;20494;-48
2021/05/30 08:10:32;;;;;;;11.70;11.20;;;23.30;54.60;;;;;;3615370;39;20572;-48
2021/05/30 08:12:58;;;;;;;13.00;12.30;;;23.30;54.50;;;;;;3606420;39;20723;-48
2021/05/30 08:15:25;;;;;;;12.33;11.83;;;23.20;54.30;;;;;;3615220;39;20475;-48
2021/05/30 08:17:54;;;;;;;12.53;11.83;;;23.10;54.40;;;;;;3606272;39;21152;-49
2021/05/30 08:20:23;;;;;;;13.17;12.57;;;23.00;54.20;;;;;;3614614;39;20565;-48
2021/05/30 08:22:51;;;;;;;12.30;11.80;;;23.00;54.10;;;;;;3615613;39;20810;-48
2021/05/30 08:25:19;;;;;;;12.20;11.70;;;23.10;53.70;;;;;;3615308;39;20494;-48
2021/05/30 08:27:47;;;;;;;11.83;11.33;;;23.10;52.70;;;;;;3605445;39;20737;-48
2021/05/30 08:30:15;;;;;;;13.43;12.33;;;23.10;52.70;;;;;;3612568;39;20479;-48
2021/05/30 08:32:42;;;;;;;12.53;12.03;;;23.20;52.40;;;;;;3612183;39;20490;-49
2021/05/30 08:35:10;;;;;;;12.83;12.23;;;23.10;52.50;;;;;;3612723;39;20912;-48
2021/05/30 08:37:41;;;;;;;12.70;12.20;;;23.30;52.80;;;;;;3605491;39;20479;-49
2021/05/30 08:40:09;;;;;;;11.77;11.17;;;23.30;52.00;;;;;;3616141;39;20506;-48
2021/05/30 08:42:36;;;;;;;12.10;11.57;;;23.30;52.00;;;;;;3614427;39;20564;-48
2021/05/30 08:45:03;;;;;;;11.73;11.13;;;23.30;51.10;;;;;;3614219;39;20867;-48
2021/05/30 08:47:30;;;;;;;12.50;11.90;;;23.30;50.70;;;;;;3614917;39;20700;-48
2021/05/30 08:49:56;;;;;;;12.43;11.63;;;23.40;50.40;;;;;;3615553;39;20482;-48
2021/05/30 08:52:24;;;;;;;11.40;11.00;;;23.50;50.50;;;;;;3614751;39;20542;-49
2021/05/30 08:54:51;;;;;;;11.87;11.37;;;23.50;49.40;;;;;;3614970;39;20483;-48
2021/05/30 08:57:17;;;;;;;11.87;11.37;;;23.50;49.20;;;;;;3614551;39;20479;-48
2021/05/30 08:59:54;;;;;;;11.63;11.13;;;23.40;49.60;;;;;;3614602;39;20704;-48
2021/05/30 09:02:20;;;;;;;11.20;10.80;;;23.40;49.30;;;;;;3614722;39;20475;-48
2021/05/30 09:04:52;;;;;;;12.13;11.40;;;23.30;49.20;;;;;;3615082;39;20490;-48
2021/05/30 09:07:19;;;;;;;11.00;10.60;;;23.40;48.90;;;;;;3615023;39;20478;-49
2021/05/30 09:09:48;;;;;;;11.50;11.00;;;23.30;48.50;;;;;;3614097;39;20862;-48
2021/05/30 09:12:22;;;;;;;11.63;11.03;;;23.40;49.10;;;;;;3614695;39;20549;-48
2021/05/30 09:14:51;;;;;;;11.30;10.83;;;23.40;49.00;;;;;;3615769;39;20471;-49
2021/05/30 09:17:18;;;;;;;11.93;11.13;;;23.30;49.00;;;;;;3615563;39;20739;-50
2021/05/30 09:19:48;;;;;;;10.63;10.23;;;23.40;49.00;;;;;;3614105;39;20515;-48
2021/05/30 09:22:26;;;;;;;11.20;10.80;;;23.40;48.70;;;;;;3614600;39;20710;-48
2021/05/30 09:25:15;;;;;;;11.07;10.50;;;23.50;48.40;;;;;;3613370;39;21043;-48
2021/05/30 09:27:44;;;;;;;10.87;10.37;;;23.40;47.30;;;;;;3611562;39;20486;-48
2021/05/30 09:30:14;;;;;;;10.73;10.23;;;23.40;47.90;;;;;;3613903;39;21117;-48
2021/05/30 09:33:00;;;;;;;10.60;10.20;;;23.30;48.10;;;;;;3613495;39;20484;-48
2021/05/30 09:35:28;;;;;;;11.20;10.80;;;23.20;48.30;;;;;;3614962;39;20548;-47
2021/05/30 09:37:59;;;;;;;11.83;11.03;;;23.10;48.40;;;;;;3613934;39;20491;-48
2021/05/30 09:40:36;;;;;;;11.13;10.70;;;23.10;48.70;;;;;;3614583;39;20549;-47
2021/05/30 09:43:08;;;;;;;10.90;10.50;;;23.10;48.40;;;;;;3613765;39;20551;-48
2021/05/30 09:45:36;;;;;;;10.30;9.80;;;23.00;47.90;;;;;;3613355;39;20475;-48
2021/05/30 09:48:04;;;;;;;11.60;11.00;;;22.90;48.10;;;;;;3614466;39;20552;-50
2021/05/30 09:50:35;;;;;;;11.87;11.27;;;22.90;48.60;;;;;;3612157;39;20483;-48
2021/05/30 09:53:02;;;;;;;10.80;10.40;;;22.90;48.20;;;;;;3613063;39;20751;-48
2021/05/30 09:55:32;;;;;;;11.10;10.70;;;22.90;48.50;;;;;;3615200;39;20479;-47
2021/05/30 09:58:09;;;;;;;11.60;10.67;;;22.90;48.30;;;;;;3613345;39;20479;-48
2021/05/30 10:00:35;;;;;;;11.50;10.90;;;22.90;47.90;;;;;;3613057;39;20479;-48
2021/05/30 10:03:03;;;;;;;11.17;10.77;;;22.90;48.10;;;;;;3612828;39;20483;-48
2021/05/30 10:05:30;;;;;;;10.90;10.50;;;22.80;48.40;;;;;;3612047;39;20495;-47
2021/05/30 10:07:58;;;;;;;11.60;11.10;;;22.80;47.90;;;;;;3611311;39;20477;-49
2021/05/30 10:10:26;;;;;;;11.33;10.93;;;22.80;47.80;;;;;;3613182;39;20504;-48
2021/05/30 10:12:53;;;;;;;11.33;10.83;;;22.70;47.80;;;;;;3613022;39;20476;-49
2021/05/30 10:15:21;;;;;;;11.43;10.80;;;22.80;48.00;;;;;;3612900;39;20487;-48
2021/05/30 10:17:50;;;;;;;10.97;10.47;;;22.70;48.20;;;;;;3612693;39;20491;-48
2021/05/30 10:20:24;;;;;;;11.50;11.00;;;22.70;48.60;;;;;;3608520;39;20484;-48
2021/05/30 10:22:53;;;;;;;11.00;10.47;;;22.70;48.10;;;;;;3611394;39;20498;-49
2021/05/30 10:25:29;;;;;;;11.30;10.83;;;22.70;47.30;;;;;;3609775;39;20616;-48
2021/05/30 10:28:12;;;;;;;11.10;10.40;;;22.80;47.60;;;;;;3612910;39;20534;-49
2021/05/30 10:30:42;;;;;;;12.00;11.50;;;23.00;48.50;;;;;;3612120;39;21151;-48
2021/05/30 10:33:15;;;;;;;12.30;11.70;;;23.30;49.00;;;;;;3596514;39;20491;-48
2021/05/30 10:35:43;;;;;;;12.73;12.13;;;23.40;49.30;;;;;;3603552;39;20487;-48
2021/05/30 10:38:13;;;;;;;12.60;12.00;;;23.60;49.80;;;;;;3608461;39;20483;-48
2021/05/30 10:40:43;;;;;;;11.53;11.03;;;23.70;50.00;;;;;;3611968;39;20483;-48
2021/05/30 10:43:19;;;;;;;13.03;12.33;;;23.80;50.20;;;;;;3614246;39;20478;-49
2021/05/30 10:46:07;;;;;;;11.53;11.03;;;23.80;50.40;;;;;;3614019;39;20494;-50
2021/05/30 10:48:35;;;;;;;12.20;11.70;;;23.90;50.60;;;;;;3614083;39;20579;-48
2021/05/30 10:51:42;;;;;;;12.20;11.60;;;23.90;50.70;;;;;;3606022;39;20488;-48
2021/05/30 10:54:13;;;;;;;12.00;11.40;;;23.90;50.90;;;;;;3604419;39;20487;-48
2021/05/30 10:56:46;;;;;;;12.63;12.10;;;24.00;51.10;;;;;;3612577;39;20479;-50
2021/05/30 10:59:24;;;;;;;12.63;12.03;;;24.00;51.20;;;;;;3612297;39;20491;-48
2021/05/30 11:01:52;;;;;;;12.93;12.27;;;24.10;51.40;;;;;;3613609;39;20502;-48
2021/05/30 11:04:35;;;;;;;12.90;12.10;;;24.20;51.60;;;;;;3613164;39;20491;-49
2021/05/30 11:07:06;;;;;;;12.53;11.93;;;24.20;51.60;;;;;;3612641;39;20576;-49
2021/05/30 11:10:12;;;;;;;12.77;12.17;;;24.20;51.80;;;;;;3603614;39;20471;-49
2021/05/30 11:12:59;;;;;;;12.80;11.80;;;24.20;51.90;;;;;;3613356;39;20477;-50
2021/05/30 11:15:37;;;;;;;12.83;12.13;;;24.20;52.00;;;;;;3603328;39;20480;-48
2021/05/30 11:18:06;;;;;;;12.93;12.23;;;24.20;52.10;;;;;;3602699;39;20472;-48
2021/05/30 11:20:49;;;;;;;13.67;12.87;;;24.20;52.30;;;;;;3604826;39;20487;-48
2021/05/30 11:23:22;;;;;;;14.37;13.67;;;24.20;52.40;;;;;;3612581;39;20797;-49
2021/05/30 11:25:56;;;;;;;15.93;14.93;;;24.20;52.70;;;;;;3610638;39;20479;-49
2021/05/30 11:28:25;;;;;;;17.10;16.00;;;24.20;53.10;;;;;;3602310;39;21007;-49
2021/05/30 11:30:55;;;;;;;16.77;15.77;;;24.20;53.30;;;;;;3603306;39;20488;-49
2021/05/30 11:33:40;;;;;;;19.90;18.37;;;24.20;53.50;;;;;;3606044;39;20915;-48
2021/05/30 11:36:09;;;;;;;19.20;17.93;;;24.20;53.80;;;;;;3594339;39;20460;-48
2021/05/30 11:38:41;;;;;;;17.93;16.83;;;24.20;54.00;;;;;;3613193;39;20471;-49
2021/05/30 11:41:20;;;;;;;17.90;16.60;;;24.20;54.10;;;;;;3632800;39;20542;-48
2021/05/30 11:44:02;;;;;;;18.10;16.83;;;24.20;54.30;;;;;;3622554;39;20482;-49
2021/05/30 11:46:32;;;;;;;17.73;16.33;;;24.20;54.30;;;;;;3623883;39;20490;-48
2021/05/30 11:49:12;;;;;;;17.30;15.90;;;24.20;53.60;;;;;;3622072;39;20466;-48
2021/05/30 11:51:49;;;;;;;16.77;15.67;;;24.10;54.00;;;;;;3626622;39;20507;-49
2021/05/30 11:54:16;;;;;;;15.23;14.40;;;24.20;54.30;;;;;;3622303;39;20482;-49
2021/05/30 11:56:46;;;;;;;15.37;14.17;;;24.20;54.40;;;;;;3627549;39;20489;-49
2021/05/30 11:59:14;;;;;;;14.83;14.03;;;24.20;54.50;;;;;;3623505;39;20470;-48
2021/05/30 12:01:45;;;;;;;15.60;14.80;;;24.20;54.60;;;;;;3628539;39;20585;-49
2021/05/30 12:04:37;;;;;;;15.87;14.77;;;24.20;54.60;;;;;;3633023;39;20481;-48
2021/05/30 12:07:08;;;;;;;15.60;14.80;;;24.20;54.70;;;;;;3630888;39;20476;-50
2021/05/30 12:09:52;;;;;;;15.63;14.73;;;24.20;55.30;;;;;;3623929;39;20493;-48
2021/05/30 12:12:32;;;;;;;14.63;13.83;;;24.20;54.80;;;;;;3632835;39;20492;-48
2021/05/30 12:15:17;;;;;;;14.70;13.70;;;24.20;54.90;;;;;;3624661;39;20781;-48
2021/05/30 12:17:59;;;;;;;14.30;13.40;;;24.20;55.00;;;;;;3632070;39;20481;-49
2021/05/30 12:20:30;;;;;;;14.43;13.63;;;24.20;55.00;;;;;;3633218;39;20575;-48
2021/05/30 12:23:07;;;;;;;15.03;14.10;;;24.20;55.00;;;;;;3625720;39;20567;-48
2021/05/30 12:25:34;;;;;;;14.83;14.00;;;24.20;55.10;;;;;;3631009;39;20476;-48
2021/05/30 12:28:02;;;;;;;13.73;13.03;;;24.20;55.20;;;;;;3633036;39;20830;-48
2021/05/30 12:30:29;;;;;;;14.13;13.33;;;24.20;55.20;;;;;;3633277;39;20714;-49
2021/05/30 12:33:01;;;;;;;13.47;12.67;;;24.20;55.30;;;;;;3625198;39;20482;-48
2021/05/30 12:35:48;;;;;;;13.80;13.10;;;24.20;55.30;;;;;;3613606;39;20490;-48
2021/05/30 12:38:18;;;;;;;14.07;13.33;;;24.20;55.30;;;;;;3622252;39;20490;-48